Herzele, Belgium
Current Conditions -  °F | °C
As of 2:25 PM on Sunday 23 Nov 2014 (Local Time) from EBCV Reporting Station
Broken Clouds Broken Clouds  
Wind Chill: 59°   Ceiling: 16000
Heat Index: 59°   Visibility: 6mi
Dew Point: 54°   Wind: 6mph
Humidity: 82%   Direction: 180°S
Pressure: 29.94"   Gusts: NA
Location:  50.89°N, 3.89°E
Report Text: EBCV 231325Z AUTO 18005KT 9999 BKN160/// 15/12 Q1014 BLU
Loading
Personal Weather Stations






























Interactive Weather Map New forecast layout! Learn more

10-Day Weather Forecast

Advertisements
Track Severe Weather on mobile